createdAt,value
2023-04-27T04:49:17.941Z,99.90
2023-04-27T04:51:47.191Z,99.90
2023-04-27T04:54:15.310Z,99.90
2023-04-27T04:56:43.628Z,99.90
2023-04-27T04:59:12.357Z,99.90
2023-04-27T05:01:40.924Z,99.90
2023-04-27T05:04:09.178Z,99.90
2023-04-27T05:06:38.768Z,99.90
2023-04-27T05:09:07.425Z,99.90
2023-04-27T05:11:35.732Z,99.90
2023-04-27T05:14:03.777Z,99.90
2023-04-27T05:16:31.991Z,99.90
2023-04-27T05:19:00.158Z,99.90
2023-04-27T05:21:28.203Z,99.90
2023-04-27T05:23:57.625Z,99.90
2023-04-27T05:26:25.930Z,99.90
2023-04-27T05:28:53.956Z,99.90
2023-04-27T05:31:22.395Z,99.90
2023-04-27T05:33:50.490Z,99.90
2023-04-27T05:36:18.501Z,99.90
2023-04-27T05:38:46.515Z,99.90
2023-04-27T05:41:16.064Z,99.90
2023-04-27T05:43:44.534Z,99.90
2023-04-27T05:46:15.236Z,99.90
2023-04-27T05:48:43.370Z,99.90
2023-04-27T05:51:11.690Z,99.90
2023-04-27T05:53:39.913Z,99.90
2023-04-27T05:56:08.821Z,99.90
2023-04-27T05:58:38.254Z,99.90
2023-04-27T06:01:06.514Z,99.90
2023-04-27T06:03:34.680Z,99.90
2023-04-27T06:06:03.172Z,99.90
2023-04-27T06:08:31.731Z,99.90
2023-04-27T06:10:59.786Z,99.90
2023-04-27T06:13:27.802Z,99.90
2023-04-27T06:15:57.385Z,99.90
2023-04-27T06:18:25.632Z,99.90
2023-04-27T06:20:53.652Z,99.90
2023-04-27T06:23:21.690Z,99.90
2023-04-27T06:25:49.691Z,99.90
2023-04-27T06:28:17.705Z,99.90
2023-04-27T06:30:46.149Z,99.90
2023-04-27T06:33:15.672Z,99.90
2023-04-27T06:35:45.727Z,99.90
2023-04-27T06:38:15.262Z,99.90
2023-04-27T06:40:43.353Z,99.90
2023-04-27T06:43:11.397Z,99.90
2023-04-27T06:45:39.546Z,99.90
2023-04-27T06:48:07.717Z,99.90
2023-04-27T06:50:37.154Z,99.90
2023-04-27T06:53:05.214Z,99.90
2023-04-27T06:55:33.302Z,99.90
2023-04-27T06:58:01.394Z,99.90
2023-04-27T07:00:29.504Z,99.90
2023-04-27T07:02:57.715Z,99.90
2023-04-27T07:05:26.053Z,99.90
2023-04-27T07:07:55.482Z,99.90
2023-04-27T07:10:23.525Z,99.90
2023-04-27T07:12:51.599Z,99.90
2023-04-27T07:15:19.653Z,99.90
2023-04-27T07:17:47.682Z,99.90
2023-04-27T07:20:16.868Z,99.90
2023-04-27T07:22:44.995Z,99.90
2023-04-27T07:25:14.425Z,99.90
2023-04-27T07:27:42.948Z,99.90
2023-04-27T07:30:14.140Z,99.90
2023-04-27T07:32:42.706Z,99.90
2023-04-27T07:35:11.151Z,99.90
2023-04-27T07:37:40.440Z,99.90
2023-04-27T07:40:16.326Z,99.90
2023-04-27T07:42:47.148Z,99.90
2023-04-27T07:45:15.412Z,99.90
2023-04-27T07:47:44.054Z,99.90
2023-04-27T07:50:12.786Z,99.90
2023-04-27T07:52:41.248Z,99.90
2023-04-27T07:55:09.880Z,99.90
2023-04-27T07:57:37.959Z,99.90
2023-04-27T08:00:11.319Z,99.90
2023-04-27T08:02:39.567Z,99.90
2023-04-27T08:05:08.751Z,99.90
2023-04-27T08:07:42.552Z,99.90
2023-04-27T08:10:12.912Z,99.90
2023-04-27T08:12:40.963Z,99.90
2023-04-27T08:15:12.630Z,99.90
2023-04-27T08:17:41.929Z,99.90
2023-04-27T08:20:11.728Z,99.90
2023-04-27T08:22:40.510Z,99.90
2023-04-27T08:25:09.658Z,99.90
2023-04-27T08:27:38.883Z,99.90
2023-04-27T08:30:08.579Z,99.90
2023-04-27T08:32:38.088Z,99.90
2023-04-27T08:35:07.218Z,99.90
2023-04-27T08:37:35.303Z,99.90
2023-04-27T08:40:07.080Z,99.90
2023-04-27T08:42:35.438Z,99.90
2023-04-27T08:45:04.524Z,99.90
2023-04-27T08:47:42.939Z,99.90
2023-04-27T08:50:13.755Z,99.90
2023-04-27T08:52:41.936Z,99.90
2023-04-27T08:55:10.482Z,99.90
2023-04-27T08:57:38.573Z,99.90
2023-04-27T09:00:13.114Z,99.90
2023-04-27T09:02:47.356Z,99.90
2023-04-27T09:05:20.730Z,99.90
2023-04-27T09:07:59.510Z,99.90
2023-04-27T09:10:29.373Z,99.90
2023-04-27T09:12:59.598Z,99.90
2023-04-27T09:15:28.464Z,99.90
2023-04-27T09:17:57.382Z,99.90
2023-04-27T09:20:28.733Z,99.90
2023-04-27T09:22:58.293Z,99.90
2023-04-27T09:25:28.299Z,99.90
2023-04-27T09:27:57.936Z,99.90
2023-04-27T09:30:26.231Z,99.90
2023-04-27T09:32:56.106Z,99.90
2023-04-27T09:35:27.793Z,99.90
2023-04-27T09:37:56.820Z,99.90
2023-04-27T09:40:27.951Z,99.90
2023-04-27T09:42:56.879Z,99.90
2023-04-27T09:45:25.658Z,99.90
2023-04-27T09:47:54.220Z,99.90
2023-04-27T09:50:22.871Z,99.90
2023-04-27T09:52:52.306Z,99.90
2023-04-27T09:55:25.278Z,99.90
2023-04-27T09:57:59.785Z,99.90
2023-04-27T10:00:43.238Z,99.90
2023-04-27T10:03:20.439Z,99.90
2023-04-27T10:06:15.794Z,99.90
2023-04-27T10:08:45.778Z,99.90
2023-04-27T10:11:19.310Z,99.90
2023-04-27T10:13:54.881Z,99.90
2023-04-27T10:16:23.360Z,99.90
2023-04-27T10:18:56.376Z,99.90
2023-04-27T10:21:24.839Z,99.90
2023-04-27T10:23:54.503Z,99.90
2023-04-27T10:26:25.909Z,99.90
2023-04-27T10:29:07.187Z,99.90
2023-04-27T10:31:36.149Z,99.90
2023-04-27T10:34:09.650Z,99.90
2023-04-27T10:36:38.503Z,99.90
2023-04-27T10:39:18.442Z,99.90
2023-04-27T10:41:54.378Z,99.90
2023-04-27T10:44:29.524Z,99.90
2023-04-27T10:46:59.797Z,99.90
2023-04-27T10:49:29.479Z,99.90
2023-04-27T10:51:59.420Z,99.90
2023-04-27T10:54:30.014Z,99.90
2023-04-27T10:57:05.188Z,99.90
2023-04-27T10:59:33.717Z,99.90
2023-04-27T11:02:01.897Z,99.90
2023-04-27T11:04:41.828Z,99.90
2023-04-27T11:07:10.409Z,99.90
2023-04-27T11:09:40.875Z,99.90
2023-04-27T11:12:13.080Z,99.90
2023-04-27T11:14:41.164Z,99.90
2023-04-27T11:17:09.321Z,99.90
2023-04-27T11:19:47.043Z,99.90
2023-04-27T11:22:17.303Z,99.90
2023-04-27T11:24:50.926Z,99.90
2023-04-27T11:27:19.949Z,99.90
2023-04-27T11:29:48.063Z,99.90
2023-04-27T11:32:23.017Z,99.90
2023-04-27T11:34:53.538Z,99.60
2023-04-27T11:37:26.656Z,98.70
2023-04-27T11:39:57.472Z,98.50
2023-04-27T11:42:28.431Z,96.70
2023-04-27T11:44:58.100Z,97.50
2023-04-27T11:47:28.250Z,96.70
2023-04-27T11:49:58.105Z,95.30
2023-04-27T11:52:30.175Z,94.90
2023-04-27T11:55:01.081Z,93.90
2023-04-27T11:57:30.991Z,93.50
2023-04-27T12:00:03.249Z,94.40
2023-04-27T12:02:32.243Z,94.50
2023-04-27T12:05:01.070Z,93.80
2023-04-27T12:07:29.228Z,93.80
2023-04-27T12:10:00.739Z,94.10
2023-04-27T12:12:29.337Z,93.80
2023-04-27T12:14:58.733Z,93.00
2023-04-27T12:17:26.861Z,91.60
2023-04-27T12:19:55.017Z,91.00
2023-04-27T12:22:23.268Z,90.90
2023-04-27T12:24:52.453Z,91.40
2023-04-27T12:27:21.874Z,89.00
2023-04-27T12:29:50.219Z,89.00
2023-04-27T12:32:18.263Z,89.50
2023-04-27T12:34:46.796Z,87.30
2023-04-27T12:37:14.794Z,89.10
2023-04-27T12:39:42.902Z,88.50
2023-04-27T12:42:11.206Z,88.80
2023-04-27T12:44:41.352Z,89.90
2023-04-27T12:47:09.583Z,87.40
2023-04-27T12:49:37.896Z,87.60
2023-04-27T12:52:06.248Z,86.90
2023-04-27T12:54:34.278Z,89.30
2023-04-27T12:57:06.090Z,88.60
2023-04-27T12:59:34.294Z,87.50
2023-04-27T13:02:04.374Z,87.20
2023-04-27T13:04:32.689Z,87.30
2023-04-27T13:07:01.033Z,86.00
2023-04-27T13:09:29.281Z,86.90
2023-04-27T13:14:28.503Z,87.90
2023-04-27T13:16:56.580Z,88.40
2023-04-27T13:19:26.120Z,88.70
2023-04-27T13:21:54.804Z,88.50
2023-04-27T13:24:24.575Z,89.10
2023-04-27T13:26:52.757Z,88.80
2023-04-27T13:29:20.838Z,86.10
2023-04-27T13:31:49.226Z,87.80
2023-04-27T13:34:18.047Z,85.00
2023-04-27T13:36:49.443Z,86.20
2023-04-27T13:39:17.883Z,85.30
2023-04-27T13:41:46.092Z,86.30
2023-04-27T13:44:14.310Z,85.30
2023-04-27T13:46:42.630Z,86.20
2023-04-27T13:49:10.986Z,86.30
2023-04-27T13:51:40.519Z,86.70
2023-04-27T13:54:10.250Z,84.00
2023-04-27T13:56:38.896Z,86.80
2023-04-27T13:59:06.967Z,87.30
2023-04-27T14:01:35.215Z,86.60
2023-04-27T14:04:03.412Z,87.10
2023-04-27T14:06:31.935Z,85.90
2023-04-27T14:09:00.068Z,87.10
2023-04-27T14:11:29.628Z,88.20
2023-04-27T14:13:58.281Z,88.10
2023-04-27T14:16:26.366Z,88.40
2023-04-27T14:18:54.434Z,89.10
2023-04-27T14:21:22.478Z,88.60
2023-04-27T14:23:50.614Z,88.50
2023-04-27T14:26:18.669Z,89.40
2023-04-27T14:28:48.086Z,90.30
2023-04-27T14:31:16.196Z,90.60
2023-04-27T14:33:44.416Z,91.20
2023-04-27T14:36:12.573Z,91.00
2023-04-27T14:38:40.693Z,91.10
2023-04-27T14:41:09.244Z,91.60
2023-04-27T14:43:37.341Z,91.50
2023-04-27T14:46:19.840Z,92.10
2023-04-27T14:48:49.937Z,92.30
2023-04-27T14:51:18.512Z,91.90
2023-04-27T14:53:46.685Z,91.90
2023-04-27T14:56:14.825Z,91.50
2023-04-27T14:58:42.916Z,92.00
2023-04-27T15:01:12.423Z,91.80
2023-04-27T15:03:40.583Z,92.10
2023-04-27T15:06:09.336Z,92.50
2023-04-27T15:08:37.429Z,91.40
2023-04-27T15:11:05.973Z,92.10
2023-04-27T15:13:34.031Z,92.00
2023-04-27T15:16:02.554Z,92.20
2023-04-27T15:18:32.308Z,92.50
2023-04-27T15:21:01.088Z,92.70
2023-04-27T15:23:29.225Z,93.40
2023-04-27T15:25:59.295Z,92.80
2023-04-27T15:28:27.335Z,92.80
2023-04-27T15:30:55.907Z,92.90
2023-04-27T15:33:24.236Z,93.50
2023-04-27T15:35:54.033Z,93.70
2023-04-27T15:38:22.206Z,94.00
2023-04-27T15:40:50.314Z,93.70
2023-04-27T15:43:18.347Z,94.60
2023-04-27T15:45:46.408Z,95.00
2023-04-27T15:48:14.942Z,95.50
2023-04-27T15:50:43.081Z,95.40
2023-04-27T15:53:12.850Z,95.20
2023-04-27T15:55:40.934Z,95.30
2023-04-27T15:58:08.966Z,95.40
2023-04-27T16:00:37.032Z,95.90
2023-04-27T16:03:09.413Z,96.40
2023-04-27T16:05:38.897Z,96.40
2023-04-27T16:08:07.140Z,96.20
2023-04-27T16:10:36.540Z,96.70
2023-04-27T16:13:04.603Z,96.90
2023-04-27T16:15:32.646Z,96.50
2023-04-27T16:18:00.720Z,96.90
2023-04-27T16:20:30.390Z,96.90
2023-04-27T16:22:58.501Z,97.40
2023-04-27T16:25:26.609Z,97.70
2023-04-27T16:27:56.017Z,98.30
2023-04-27T16:30:24.451Z,98.50
2023-04-27T16:32:53.990Z,98.10
2023-04-27T16:35:22.089Z,98.40
2023-04-27T16:37:50.689Z,98.30
2023-04-27T16:40:18.800Z,98.30
2023-04-27T16:42:47.960Z,98.60
2023-04-27T16:45:17.727Z,99.20
2023-04-27T16:47:46.625Z,99.70
2023-04-27T16:50:14.856Z,99.60
2023-04-27T16:52:42.888Z,99.90
2023-04-27T16:55:11.179Z,99.90
2023-04-27T16:57:39.370Z,99.90
2023-04-27T17:00:09.821Z,99.90
2023-04-27T17:02:42.043Z,99.90
2023-04-27T17:05:11.931Z,99.90
2023-04-27T17:07:40.117Z,99.90
2023-04-27T17:10:09.565Z,99.90
2023-04-27T17:12:38.132Z,99.90
2023-04-27T17:15:08.269Z,99.90
2023-04-27T17:17:38.141Z,99.90
2023-04-27T17:20:09.260Z,99.90
2023-04-27T17:22:37.445Z,99.90
2023-04-27T17:25:06.186Z,99.90
2023-04-27T17:27:34.278Z,99.90
2023-04-27T17:30:02.659Z,99.90
2023-04-27T17:32:30.856Z,99.90
2023-04-27T17:35:00.341Z,99.90
2023-04-27T17:37:28.389Z,99.90
2023-04-27T17:39:56.420Z,99.90
2023-04-27T17:42:24.483Z,99.90
2023-04-27T17:44:52.537Z,99.90
2023-04-27T17:47:22.297Z,99.90
2023-04-27T17:49:50.347Z,99.90
2023-04-27T17:52:19.780Z,99.90
2023-04-27T17:54:47.861Z,99.90
2023-04-27T17:57:15.909Z,99.90
2023-04-27T17:59:44.073Z,99.90
2023-04-27T18:02:12.206Z,99.90
2023-04-27T18:04:40.341Z,99.90
2023-04-27T18:07:08.460Z,99.90
2023-04-27T18:09:37.963Z,99.90
2023-04-27T18:12:11.020Z,99.90
2023-04-27T18:14:39.514Z,99.90
